This is the latest recevied weather packets stored in our database for station/object KD4WXI. If no packets are shown the sender has not sent any weather packets the latest 10 day(s).
| Time | Temp. | Humidity | Pressure | Rain* | Wind** | Luminosity | Snow |
|---|---|---|---|---|---|---|---|
| 1777417780 | 17.22° C | 87% | 1016.9 hPa | 0 mm | - | 42 W/m² | - |
| 1777417474 | 17.22° C | 85% | 1016.9 hPa | 0 mm | - | 50 W/m² | - |
| 1777417172 | 17.22° C | 84% | 1016.8 hPa | 0 mm | - | 46 W/m² | - |
| 1777416867 | 17.78° C | 86% | 1016.9 hPa | 0 mm | - | 35 W/m² | - |
| 1777416563 | 17.78° C | 83% | 1016.9 hPa | 0 mm | - | 35 W/m² | - |
| 1777416260 | 17.78° C | 83% | 1016.9 hPa | 0 mm | - | 45 W/m² | - |
| 1777415958 | 17.78° C | 82% | 1017.1 hPa | 0 mm | - | 69 W/m² | - |
| 1777415655 | 17.78° C | 82% | 1017.2 hPa | 0 mm | - | 73 W/m² | - |
| 1777415350 | 17.78° C | 82% | 1017 hPa | 0 mm | - | 55 W/m² | - |
| 1777415045 | 17.78° C | 81% | 1017.2 hPa | 0 mm | - | 74 W/m² | - |
| 1777414744 | 17.78° C | 82% | 1017.4 hPa | 0 mm | - | 76 W/m² | - |
| 1777414440 | 17.78° C | 84% | 1017.5 hPa | 0 mm | - | 86 W/m² | - |
| 1777414139 | 17.78° C | 81% | 1017.4 hPa | 0 mm | - | 82 W/m² | - |
| 1777413835 | 17.78° C | 83% | 1017.7 hPa | 0 mm | - | 100 W/m² | - |
| 1777413531 | 17.22° C | 83% | 1017.8 hPa | 0 mm | - | 104 W/m² | - |
| 1777413227 | 17.22° C | 84% | 1018 hPa | 0 mm | - | 100 W/m² | - |
| 1777412923 | 17.22° C | 84% | 1018.1 hPa | 0 mm | - | 89 W/m² | - |
| 1777412622 | 17.22° C | 83% | 1018.1 hPa | 0 mm | - | 85 W/m² | - |
| 1777412319 | 17.22° C | 84% | 1018 hPa | 0 mm | - | 95 W/m² | - |
| 1777412014 | 17.78° C | 85% | 1018.1 hPa | 0 mm | - | 87 W/m² | - |
| 1777411713 | 17.78° C | 81% | 1018 hPa | 0 mm | - | 104 W/m² | - |
| 1777411409 | 17.22° C | 85% | 1018.2 hPa | 0 mm | - | 128 W/m² | - |
| 1777411109 | 17.22° C | 84% | 1018.3 hPa | 0 mm | - | 117 W/m² | - |
| 1777410808 | 17.22° C | 82% | 1018.2 hPa | 0 mm | - | 146 W/m² | - |
| 1777410508 | 17.22° C | 85% | 1018.4 hPa | 0 mm | - | 142 W/m² | - |
* Rain latest hour (hover to see other rain measurements)
** Current wind speed in m/s (hover to see current wind gust speed)